sensor_id;sensor_type;location;lat;lon;timestamp;pressure;altitude;pressure_sealevel;temperature;humidity
18765;BME280;9511;54.242;12.448;2022-11-23T00:01:42;100152.13;;;-0.04;100.00
18765;BME280;9511;54.242;12.448;2022-11-23T00:04:11;100147.09;;;-0.01;100.00
18765;BME280;9511;54.242;12.448;2022-11-23T00:06:39;100165.41;;;0.01;100.00
18765;BME280;9511;54.242;12.448;2022-11-23T00:09:10;100173.91;;;-0.02;100.00
18765;BME280;9511;54.242;12.448;2022-11-23T00:11:39;100181.72;;;-0.02;100.00
18765;BME280;9511;54.242;12.448;2022-11-23T00:14:07;100187.09;;;0.01;100.00
18765;BME280;9511;54.242;12.448;2022-11-23T00:16:34;100186.28;;;0.02;100.00
18765;BME280;9511;54.242;12.448;2022-11-23T00:19:01;100189.84;;;0.04;100.00
18765;BME280;9511;54.242;12.448;2022-11-23T00:21:30;100185.53;;;0.05;100.00
18765;BME280;9511;54.242;12.448;2022-11-23T00:23:58;100186.56;;;0.07;100.00
18765;BME280;9511;54.242;12.448;2022-11-23T00:26:25;100170.84;;;0.05;100.00
18765;BME280;9511;54.242;12.448;2022-11-23T00:28:54;100175.06;;;0.03;100.00
18765;BME280;9511;54.242;12.448;2022-11-23T00:31:26;100173.38;;;0.04;100.00
18765;BME280;9511;54.242;12.448;2022-11-23T00:33:55;100178.63;;;0.05;100.00
18765;BME280;9511;54.242;12.448;2022-11-23T00:36:24;100177.03;;;0.07;100.00
18765;BME280;9511;54.242;12.448;2022-11-23T00:38:52;100182.41;;;0.10;100.00
18765;BME280;9511;54.242;12.448;2022-11-23T00:41:21;100171.03;;;0.08;100.00
18765;BME280;9511;54.242;12.448;2022-11-23T00:43:50;100176.84;;;0.04;100.00
18765;BME280;9511;54.242;12.448;2022-11-23T00:46:21;100163.38;;;0.11;100.00
18765;BME280;9511;54.242;12.448;2022-11-23T00:48:50;100166.66;;;0.07;100.00
18765;BME280;9511;54.242;12.448;2022-11-23T00:51:20;100172.66;;;0.06;100.00
18765;BME280;9511;54.242;12.448;2022-11-23T00:53:48;100176.31;;;0.10;100.00
18765;BME280;9511;54.242;12.448;2022-11-23T00:56:16;100178.63;;;0.05;100.00
18765;BME280;9511;54.242;12.448;2022-11-23T00:58:47;100173.63;;;0.08;100.00
18765;BME280;9511;54.242;12.448;2022-11-23T01:01:16;100177.19;;;0.10;100.00
18765;BME280;9511;54.242;12.448;2022-11-23T01:03:48;100175.59;;;0.12;100.00
18765;BME280;9511;54.242;12.448;2022-11-23T01:06:17;100171.72;;;0.06;100.00
18765;BME280;9511;54.242;12.448;2022-11-23T01:08:49;100178.84;;;0.08;100.00
18765;BME280;9511;54.242;12.448;2022-11-23T01:11:17;100170.28;;;0.11;100.00
18765;BME280;9511;54.242;12.448;2022-11-23T01:13:45;100180.63;;;0.09;100.00
18765;BME280;9511;54.242;12.448;2022-11-23T01:16:14;100177.19;;;0.10;100.00
18765;BME280;9511;54.242;12.448;2022-11-23T01:18:42;100174.78;;;0.13;100.00
18765;BME280;9511;54.242;12.448;2022-11-23T01:21:11;100170.28;;;0.11;100.00
18765;BME280;9511;54.242;12.448;2022-11-23T01:23:38;100185.66;;;0.06;100.00
18765;BME280;9511;54.242;12.448;2022-11-23T01:26:08;100188.34;;;0.08;100.00
18765;BME280;9511;54.242;12.448;2022-11-23T01:28:37;100182.25;;;0.07;100.00
18765;BME280;9511;54.242;12.448;2022-11-23T01:31:06;100179.66;;;0.07;100.00
18765;BME280;9511;54.242;12.448;2022-11-23T01:33:34;100191.75;;;0.07;100.00
18765;BME280;9511;54.242;12.448;2022-11-23T01:36:08;100180.63;;;0.09;100.00
18765;BME280;9511;54.242;12.448;2022-11-23T01:38:36;100188.41;;;0.09;100.00
18765;BME280;9511;54.242;12.448;2022-11-23T01:41:05;100191.03;;;0.09;100.00
18765;BME280;9511;54.242;12.448;2022-11-23T01:43:32;100191.91;;;0.10;100.00
18765;BME280;9511;54.242;12.448;2022-11-23T01:46:01;100199.09;;;0.14;100.00
18765;BME280;9511;54.242;12.448;2022-11-23T01:48:34;100199.16;;;0.15;100.00
18765;BME280;9511;54.242;12.448;2022-11-23T01:51:05;100200.88;;;0.15;100.00
18765;BME280;9511;54.242;12.448;2022-11-23T01:53:37;100202.84;;;0.19;100.00
18765;BME280;9511;54.242;12.448;2022-11-23T01:56:06;100201.78;;;0.15;100.00
18765;BME280;9511;54.242;12.448;2022-11-23T01:58:39;100204.63;;;0.20;100.00
18765;BME280;9511;54.242;12.448;2022-11-23T02:01:07;100202.31;;;0.24;100.00
18765;BME280;9511;54.242;12.448;2022-11-23T02:03:35;100193.41;;;0.21;100.00
18765;BME280;9511;54.242;12.448;2022-11-23T02:06:12;100200.34;;;0.20;100.00
18765;BME280;9511;54.242;12.448;2022-11-23T02:08:42;100192.59;;;0.22;100.00
18765;BME280;9511;54.242;12.448;2022-11-23T02:11:11;100199.78;;;0.26;100.00
18765;BME280;9511;54.242;12.448;2022-11-23T02:13:41;100190.28;;;0.26;100.00
18765;BME280;9511;54.242;12.448;2022-11-23T02:16:09;100191.16;;;0.27;100.00
18765;BME280;9511;54.242;12.448;2022-11-23T02:18:40;100196.44;;;0.29;100.00
18765;BME280;9511;54.242;12.448;2022-11-23T02:21:10;100203.00;;;0.22;100.00
18765;BME280;9511;54.242;12.448;2022-11-23T02:23:45;100193.50;;;0.22;100.00
18765;BME280;9511;54.242;12.448;2022-11-23T02:26:20;100197.09;;;0.24;100.00
18765;BME280;9511;54.242;12.448;2022-11-23T02:28:52;100191.63;;;0.35;100.00
18765;BME280;9511;54.242;12.448;2022-11-23T02:31:21;100190.53;;;0.31;100.00
18765;BME280;9511;54.242;12.448;2022-11-23T02:33:52;100180.94;;;0.30;100.00
18765;BME280;9511;54.242;12.448;2022-11-23T02:36:41;100187.13;;;0.32;100.00
18765;BME280;9511;54.242;12.448;2022-11-23T02:39:10;100187.88;;;0.30;100.00
18765;BME280;9511;54.242;12.448;2022-11-23T02:41:42;100189.03;;;0.35;100.00
18765;BME280;9511;54.242;12.448;2022-11-23T02:44:30;100186.31;;;0.33;100.00
18765;BME280;9511;54.242;12.448;2022-11-23T02:46:59;100187.94;;;0.31;100.00
18765;BME280;9511;54.242;12.448;2022-11-23T02:49:27;100176.63;;;0.31;100.00
18765;BME280;9511;54.242;12.448;2022-11-23T02:51:54;100183.72;;;0.33;100.00
18765;BME280;9511;54.242;12.448;2022-11-23T02:54:25;100185.50;;;0.34;100.00
18765;BME280;9511;54.242;12.448;2022-11-23T02:56:53;100191.44;;;0.32;100.00
18765;BME280;9511;54.242;12.448;2022-11-23T02:59:22;100187.38;;;0.37;100.00
18765;BME280;9511;54.242;12.448;2022-11-23T03:01:51;100181.22;;;0.35;100.00
18765;BME280;9511;54.242;12.448;2022-11-23T03:04:18;100182.53;;;0.43;100.00
18765;BME280;9511;54.242;12.448;2022-11-23T03:06:46;100183.00;;;0.36;100.00
18765;BME280;9511;54.242;12.448;2022-11-23T03:09:13;100188.63;;;0.43;100.00
18765;BME280;9511;54.242;12.448;2022-11-23T03:11:41;100190.16;;;0.40;100.00
18765;BME280;9511;54.242;12.448;2022-11-23T03:14:10;100192.66;;;0.38;100.00
18765;BME280;9511;54.242;12.448;2022-11-23T03:16:45;100194.44;;;0.39;100.00
18765;BME280;9511;54.242;12.448;2022-11-23T03:19:16;100193.09;;;0.46;100.00
18765;BME280;9511;54.242;12.448;2022-11-23T03:24:33;100196.34;;;0.42;100.00
18765;BME280;9511;54.242;12.448;2022-11-23T03:27:03;100188.00;;;0.47;100.00
18765;BME280;9511;54.242;12.448;2022-11-23T03:29:32;100193.81;;;0.43;100.00
18765;BME280;9511;54.242;12.448;2022-11-23T03:32:04;100190.97;;;0.39;100.00
18765;BME280;9511;54.242;12.448;2022-11-23T03:34:32;100202.38;;;0.41;100.00
18765;BME280;9511;54.242;12.448;2022-11-23T03:37:00;100201.38;;;0.39;100.00
18765;BME280;9511;54.242;12.448;2022-11-23T03:39:27;100202.38;;;0.41;100.00
18765;BME280;9511;54.242;12.448;2022-11-23T03:41:55;100196.16;;;0.39;100.00
18765;BME280;9511;54.242;12.448;2022-11-23T03:44:28;100192.75;;;0.40;100.00
18765;BME280;9511;54.242;12.448;2022-11-23T03:46:56;100189.16;;;0.38;100.00
18765;BME280;9511;54.242;12.448;2022-11-23T03:49:25;100184.72;;;0.35;100.00
18765;BME280;9511;54.242;12.448;2022-11-23T03:51:53;100185.59;;;0.36;100.00
18765;BME280;9511;54.242;12.448;2022-11-23T03:54:20;100190.31;;;0.43;100.00
18765;BME280;9511;54.242;12.448;2022-11-23T03:56:47;100188.69;;;0.45;100.00
18765;BME280;9511;54.242;12.448;2022-11-23T03:59:15;100191.31;;;0.45;100.00
18765;BME280;9511;54.242;12.448;2022-11-23T04:01:42;100194.16;;;0.49;100.00
18765;BME280;9511;54.242;12.448;2022-11-23T04:04:18;100192.31;;;0.47;100.00
18765;BME280;9511;54.242;12.448;2022-11-23T04:06:57;100187.88;;;0.46;100.00
18765;BME280;9511;54.242;12.448;2022-11-23T04:09:35;100191.31;;;0.45;100.00
18765;BME280;9511;54.242;12.448;2022-11-23T04:12:03;100186.84;;;0.42;100.00
18765;BME280;9511;54.242;12.448;2022-11-23T04:14:31;100188.47;;;0.40;100.00
18765;BME280;9511;54.242;12.448;2022-11-23T04:16:59;100181.72;;;0.44;100.00
18765;BME280;9511;54.242;12.448;2022-11-23T04:19:29;100202.53;;;0.44;100.00
18765;BME280;9511;54.242;12.448;2022-11-23T04:21:57;100198.06;;;0.41;100.00
18765;BME280;9511;54.242;12.448;2022-11-23T04:24:26;100196.34;;;0.42;100.00
18765;BME280;9511;54.242;12.448;2022-11-23T04:26:57;100196.34;;;0.42;100.00
18765;BME280;9511;54.242;12.448;2022-11-23T04:29:24;100194.91;;;0.47;100.00
18765;BME280;9511;54.242;12.448;2022-11-23T04:31:53;100202.53;;;0.44;100.00
18765;BME280;9511;54.242;12.448;2022-11-23T04:34:21;100196.69;;;0.48;100.00
18765;BME280;9511;54.242;12.448;2022-11-23T04:36:52;100208.31;;;0.55;100.00
18765;BME280;9511;54.242;12.448;2022-11-23T04:39:26;100208.88;;;0.49;100.00
18765;BME280;9511;54.242;12.448;2022-11-23T04:42:17;100203.88;;;0.52;100.00
18765;BME280;9511;54.242;12.448;2022-11-23T04:44:55;100198.81;;;0.55;100.00
18765;BME280;9511;54.242;12.448;2022-11-23T04:47:23;100201.34;;;0.53;100.00
18765;BME280;9511;54.242;12.448;2022-11-23T04:49:51;100194.34;;;0.52;100.00
18765;BME280;9511;54.242;12.448;2022-11-23T04:52:21;100204.03;;;0.55;100.00
18765;BME280;9511;54.242;12.448;2022-11-23T04:54:49;100212.78;;;0.57;100.00
18765;BME280;9511;54.242;12.448;2022-11-23T04:57:17;100211.19;;;0.59;100.00
18765;BME280;9511;54.242;12.448;2022-11-23T04:59:46;100205.34;;;0.63;100.00
18765;BME280;9511;54.242;12.448;2022-11-23T05:02:14;100199.16;;;0.61;100.00
18765;BME280;9511;54.242;12.448;2022-11-23T05:04:58;100202.75;;;0.63;100.00
18765;BME280;9511;54.242;12.448;2022-11-23T05:07:30;100186.97;;;0.60;100.00
18765;BME280;9511;54.242;12.448;2022-11-23T05:10:01;100197.38;;;0.60;100.00
18765;BME280;9511;54.242;12.448;2022-11-23T05:12:30;100194.03;;;0.63;100.00
18765;BME280;9511;54.242;12.448;2022-11-23T05:14:58;100187.84;;;0.61;100.00
18765;BME280;9511;54.242;12.448;2022-11-23T05:17:33;100192.34;;;0.63;100.00
18765;BME280;9511;54.242;12.448;2022-11-23T05:20:00;100191.69;;;0.67;100.00
18765;BME280;9511;54.242;12.448;2022-11-23T05:22:31;100182.09;;;0.66;100.00
18765;BME280;9511;54.242;12.448;2022-11-23T05:24:59;100189.91;;;0.66;100.00
18765;BME280;9511;54.242;12.448;2022-11-23T05:27:28;100195.19;;;0.68;100.00
18765;BME280;9511;54.242;12.448;2022-11-23T05:29:56;100195.28;;;0.69;100.00
18765;BME280;9511;54.242;12.448;2022-11-23T05:32:23;100198.66;;;0.68;100.00
18765;BME280;9511;54.242;12.448;2022-11-23T05:34:51;100193.97;;;0.77;100.00
18765;BME280;9511;54.242;12.448;2022-11-23T05:37:19;100199.13;;;0.76;100.00
18765;BME280;9511;54.242;12.448;2022-11-23T05:39:59;100192.84;;;0.72;100.00
18765;BME280;9511;54.242;12.448;2022-11-23T05:42:29;100198.38;;;0.78;100.00
18765;BME280;9511;54.242;12.448;2022-11-23T05:45:03;100203.44;;;0.75;100.00
18765;BME280;9511;54.242;12.448;2022-11-23T05:47:38;100195.75;;;0.78;100.00
18765;BME280;9511;54.242;12.448;2022-11-23T05:50:08;100199.13;;;0.76;100.00
18765;BME280;9511;54.242;12.448;2022-11-23T05:52:40;100196.41;;;0.74;100.00
18765;BME280;9511;54.242;12.448;2022-11-23T05:55:09;100188.97;;;0.81;100.00
18765;BME280;9511;54.242;12.448;2022-11-23T05:57:36;100187.06;;;0.78;100.00
18765;BME280;9511;54.242;12.448;2022-11-23T06:00:06;100186.50;;;0.84;100.00
18765;BME280;9511;54.242;12.448;2022-11-23T06:02:49;100184.78;;;0.84;100.00
18765;BME280;9511;54.242;12.448;2022-11-23T06:05:17;100182.13;;;0.83;100.00
18765;BME280;9511;54.242;12.448;2022-11-23T06:07:51;100181.94;;;0.79;100.00
18765;BME280;9511;54.242;12.448;2022-11-23T06:10:24;100182.94;;;0.82;100.00
18765;BME280;9511;54.242;12.448;2022-11-23T06:12:52;100178.78;;;0.85;100.00
18765;BME280;9511;54.242;12.448;2022-11-23T06:15:21;100180.47;;;0.85;100.00
18765;BME280;9511;54.242;12.448;2022-11-23T06:17:49;100182.25;;;0.86;100.00
18765;BME280;9511;54.242;12.448;2022-11-23T06:20:20;100194.31;;;0.84;100.00
18765;BME280;9511;54.242;12.448;2022-11-23T06:22:55;100191.16;;;0.89;100.00
18765;BME280;9511;54.242;12.448;2022-11-23T06:25:26;100186.84;;;0.90;100.00
18765;BME280;9511;54.242;12.448;2022-11-23T06:28:12;100185.94;;;0.89;100.00
18765;BME280;9511;54.242;12.448;2022-11-23T06:30:43;100186.84;;;0.90;100.00
18765;BME280;9511;54.242;12.448;2022-11-23T06:33:12;100197.09;;;0.87;100.00
18765;BME280;9511;54.242;12.448;2022-11-23T06:35:51;100197.25;;;0.90;100.00
18765;BME280;9511;54.242;12.448;2022-11-23T06:38:18;100209.44;;;0.91;100.00
18765;BME280;9511;54.242;12.448;2022-11-23T06:40:48;100206.84;;;0.91;100.00
18765;BME280;9511;54.242;12.448;2022-11-23T06:43:17;100217.19;;;0.89;100.00
18765;BME280;9511;54.242;12.448;2022-11-23T06:45:44;100211.09;;;0.89;100.00
18765;BME280;9511;54.242;12.448;2022-11-23T06:48:14;100214.75;;;0.92;100.00
18765;BME280;9511;54.242;12.448;2022-11-23T06:50:46;100222.91;;;0.98;100.00
18765;BME280;9511;54.242;12.448;2022-11-23T06:53:15;100225.41;;;0.97;100.00
18765;BME280;9511;54.242;12.448;2022-11-23T06:55:48;100224.84;;;1.02;100.00
18765;BME280;9511;54.242;12.448;2022-11-23T06:58:18;100222.81;;;0.97;100.00
18765;BME280;9511;54.242;12.448;2022-11-23T07:00:45;100227.28;;;0.99;100.00
18765;BME280;9511;54.242;12.448;2022-11-23T07:03:18;100226.47;;;1.00;100.00
18765;BME280;9511;54.242;12.448;2022-11-23T07:05:48;100229.81;;;0.98;100.00
18765;BME280;9511;54.242;12.448;2022-11-23T07:08:18;100225.59;;;1.00;100.00
18765;BME280;9511;54.242;12.448;2022-11-23T07:10:45;100219.81;;;1.05;100.00
18765;BME280;9511;54.242;12.448;2022-11-23T07:13:16;100224.13;;;1.05;100.00
18765;BME280;9511;54.242;12.448;2022-11-23T07:15:44;100225.91;;;1.06;100.00
18765;BME280;9511;54.242;12.448;2022-11-23T07:18:11;100231.31;;;1.09;100.00
18765;BME280;9511;54.242;12.448;2022-11-23T07:20:45;100226.16;;;1.11;100.00
18765;BME280;9511;54.242;12.448;2022-11-23T07:23:12;100223.63;;;1.12;100.00
18765;BME280;9511;54.242;12.448;2022-11-23T07:25:40;100229.75;;;1.13;100.00
18765;BME280;9511;54.242;12.448;2022-11-23T07:28:11;100231.53;;;1.14;100.00
18765;BME280;9511;54.242;12.448;2022-11-23T07:30:40;100226.50;;;1.17;100.00
18765;BME280;9511;54.242;12.448;2022-11-23T07:33:10;100229.03;;;1.15;100.00
18765;BME280;9511;54.242;12.448;2022-11-23T07:35:39;100238.53;;;1.15;100.00
18765;BME280;9511;54.242;12.448;2022-11-23T07:38:08;100249.19;;;1.19;100.00
18765;BME280;9511;54.242;12.448;2022-11-23T07:40:36;100249.19;;;1.19;100.00
18765;BME280;9511;54.242;12.448;2022-11-23T07:43:05;100245.78;;;1.20;100.00
18765;BME280;9511;54.242;12.448;2022-11-23T07:45:33;100242.38;;;1.21;100.00
18765;BME280;9511;54.242;12.448;2022-11-23T07:48:07;100252.06;;;1.24;100.00
18765;BME280;9511;54.242;12.448;2022-11-23T07:50:37;100250.41;;;1.26;100.00
18765;BME280;9511;54.242;12.448;2022-11-23T07:53:05;100243.41;;;1.25;100.00
18765;BME280;9511;54.242;12.448;2022-11-23T07:55:36;100252.44;;;1.31;100.00
18765;BME280;9511;54.242;12.448;2022-11-23T07:58:03;100251.66;;;1.32;100.00
18765;BME280;9511;54.242;12.448;2022-11-23T08:00:31;100256.06;;;1.33;100.00
18765;BME280;9511;54.242;12.448;2022-11-23T08:02:58;100244.81;;;1.35;100.00
18765;BME280;9511;54.242;12.448;2022-11-23T08:05:27;100245.47;;;1.30;100.00
18765;BME280;9511;54.242;12.448;2022-11-23T08:07:58;100250.03;;;1.35;100.00
18765;BME280;9511;54.242;12.448;2022-11-23T08:10:26;100252.56;;;1.33;100.00
18765;BME280;9511;54.242;12.448;2022-11-23T08:12:56;100244.63;;;1.31;100.00
18765;BME280;9511;54.242;12.448;2022-11-23T08:15:23;100255.25;;;1.35;100.00
18765;BME280;9511;54.242;12.448;2022-11-23T08:17:54;100259.06;;;1.41;100.00
18765;BME280;9511;54.242;12.448;2022-11-23T08:20:21;100255.63;;;1.42;100.00
18765;BME280;9511;54.242;12.448;2022-11-23T08:22:50;100260.94;;;1.44;100.00
18765;BME280;9511;54.242;12.448;2022-11-23T08:25:17;100260.28;;;1.48;100.00
18765;BME280;9511;54.242;12.448;2022-11-23T08:27:45;100252.63;;;1.51;100.00
18765;BME280;9511;54.242;12.448;2022-11-23T08:30:13;100256.38;;;1.56;100.00
18765;BME280;9511;54.242;12.448;2022-11-23T08:32:41;100252.97;;;1.57;100.00
18765;BME280;9511;54.242;12.448;2022-11-23T08:35:08;100259.13;;;1.59;100.00
18765;BME280;9511;54.242;12.448;2022-11-23T08:37:36;100261.03;;;1.62;100.00
18765;BME280;9511;54.242;12.448;2022-11-23T08:40:05;100253.28;;;1.63;100.00
18765;BME280;9511;54.242;12.448;2022-11-23T08:42:33;100255.06;;;1.64;100.00
18765;BME280;9511;54.242;12.448;2022-11-23T08:45:00;100252.63;;;1.67;100.00
18765;BME280;9511;54.242;12.448;2022-11-23T08:47:30;100243.00;;;1.66;100.00
18765;BME280;9511;54.242;12.448;2022-11-23T08:49:57;100243.16;;;1.69;100.00
18765;BME280;9511;54.242;12.448;2022-11-23T08:52:25;100241.69;;;1.74;100.00
18765;BME280;9511;54.242;12.448;2022-11-23T08:54:52;100243.47;;;1.75;100.00
18765;BME280;9511;54.242;12.448;2022-11-23T08:57:21;100235.00;;;1.79;100.00
18765;BME280;9511;54.242;12.448;2022-11-23T08:59:48;100235.69;;;1.93;100.00
18765;BME280;9511;54.242;12.448;2022-11-23T09:02:15;100227.88;;;1.93;100.00
18765;BME280;9511;54.242;12.448;2022-11-23T09:04:42;100233.97;;;1.94;100.00
18765;BME280;9511;54.242;12.448;2022-11-23T09:07:10;100227.94;;;1.95;100.00
18765;BME280;9511;54.242;12.448;2022-11-23T09:09:37;100218.50;;;1.97;100.00
18765;BME280;9511;54.242;12.448;2022-11-23T09:12:05;100223.84;;;2.00;100.00
18765;BME280;9511;54.242;12.448;2022-11-23T09:14:33;100224.16;;;2.06;100.00
18765;BME280;9511;54.242;12.448;2022-11-23T09:17:01;100226.88;;;2.07;100.00
18765;BME280;9511;54.242;12.448;2022-11-23T09:19:29;100232.16;;;2.09;100.00
18765;BME280;9511;54.242;12.448;2022-11-23T09:21:56;100231.19;;;2.07;100.00
18765;BME280;9511;54.242;12.448;2022-11-23T09:24:57;100230.63;;;2.12;100.00
18765;BME280;9511;54.242;12.448;2022-11-23T09:27:24;100224.41;;;2.10;100.00
18765;BME280;9511;54.242;12.448;2022-11-23T09:29:53;100234.41;;;2.19;100.00
18765;BME280;9511;54.242;12.448;2022-11-23T09:32:20;100231.94;;;2.22;100.00
18765;BME280;9511;54.242;12.448;2022-11-23T09:34:48;100231.94;;;2.22;100.00
18765;BME280;9511;54.242;12.448;2022-11-23T09:37:15;100230.63;;;2.30;100.00
18765;BME280;9511;54.242;12.448;2022-11-23T09:39:42;100241.56;;;2.23;100.00
18765;BME280;9511;54.242;12.448;2022-11-23T09:42:19;100226.97;;;2.27;100.00
18765;BME280;9511;54.242;12.448;2022-11-23T09:45:04;100223.59;;;2.29;100.00
18765;BME280;9511;54.242;12.448;2022-11-23T09:47:48;100223.16;;;2.38;100.00
18765;BME280;9511;54.242;12.448;2022-11-23T09:50:26;100228.31;;;2.36;100.00
18765;BME280;9511;54.242;12.448;2022-11-23T09:52:54;100221.50;;;2.40;100.00
18765;BME280;9511;54.242;12.448;2022-11-23T09:55:28;100227.63;;;2.40;100.00
18765;BME280;9511;54.242;12.448;2022-11-23T09:58:03;100229.13;;;2.35;100.00
18765;BME280;9511;54.242;12.448;2022-11-23T10:00:36;100236.28;;;2.39;100.00
18765;BME280;9511;54.242;12.448;2022-11-23T10:03:03;100241.50;;;2.39;100.00
18765;BME280;9511;54.242;12.448;2022-11-23T10:05:35;100240.00;;;2.45;100.00
18765;BME280;9511;54.242;12.448;2022-11-23T10:08:09;100242.63;;;2.45;100.00
18765;BME280;9511;54.242;12.448;2022-11-23T10:10:42;100238.97;;;2.41;100.00
18765;BME280;9511;54.242;12.448;2022-11-23T10:13:32;100238.22;;;2.44;100.00
18765;BME280;9511;54.242;12.448;2022-11-23T10:16:20;100240.47;;;2.54;100.00
18765;BME280;9511;54.242;12.448;2022-11-23T10:18:57;100236.44;;;2.60;100.00
18765;BME280;9511;54.242;12.448;2022-11-23T10:21:33;100239.78;;;2.58;100.00
18765;BME280;9511;54.242;12.448;2022-11-23T10:24:14;100240.78;;;2.60;100.00
18765;BME280;9511;54.242;12.448;2022-11-23T10:26:47;100232.28;;;2.64;100.00
18765;BME280;9511;54.242;12.448;2022-11-23T10:29:29;100239.34;;;2.66;100.00
18765;BME280;9511;54.242;12.448;2022-11-23T10:31:58;100232.69;;;2.73;100.00
18765;BME280;9511;54.242;12.448;2022-11-23T10:34:43;100238.19;;;2.79;100.00
18765;BME280;9511;54.242;12.448;2022-11-23T10:37:13;100245.50;;;2.86;100.00
18765;BME280;9511;54.242;12.448;2022-11-23T10:39:42;100235.88;;;2.85;100.00
18765;BME280;9511;54.242;12.448;2022-11-23T10:42:17;100244.00;;;2.91;100.00
18765;BME280;9511;54.242;12.448;2022-11-23T10:44:48;100245.88;;;2.94;100.00
18765;BME280;9511;54.242;12.448;2022-11-23T10:47:35;100245.50;;;3.04;100.00
18765;BME280;9511;54.242;12.448;2022-11-23T10:50:19;100246.66;;;3.11;100.00
18765;BME280;9511;54.242;12.448;2022-11-23T10:52:50;100243.50;;;3.18;100.00
18765;BME280;9511;54.242;12.448;2022-11-23T10:55:23;100242.75;;;3.20;100.00
18765;BME280;9511;54.242;12.448;2022-11-23T10:57:52;100242.97;;;3.25;100.00
18765;BME280;9511;54.242;12.448;2022-11-23T11:00:22;100247.22;;;3.23;100.00
18765;BME280;9511;54.242;12.448;2022-11-23T11:02:55;100246.84;;;3.33;100.00
18765;BME280;9511;54.242;12.448;2022-11-23T11:05:29;100244.56;;;3.41;100.00
18765;BME280;9511;54.242;12.448;2022-11-23T11:07:58;100246.56;;;3.46;100.00
18765;BME280;9511;54.242;12.448;2022-11-23T11:10:32;100244.78;;;3.45;100.00
18765;BME280;9511;54.242;12.448;2022-11-23T11:12:59;100245.59;;;3.44;100.00
18765;BME280;9511;54.242;12.448;2022-11-23T11:15:27;100237.81;;;3.46;100.00
18765;BME280;9511;54.242;12.448;2022-11-23T11:17:57;100237.88;;;3.47;100.00
18765;BME280;9511;54.242;12.448;2022-11-23T11:20:32;100239.81;;;3.52;100.00
18765;BME280;9511;54.242;12.448;2022-11-23T11:23:02;100236.53;;;3.56;100.00
18765;BME280;9511;54.242;12.448;2022-11-23T11:25:32;100244.22;;;3.53;100.00
18765;BME280;9511;54.242;12.448;2022-11-23T11:28:02;100238.03;;;3.51;100.00
18765;BME280;9511;54.242;12.448;2022-11-23T11:30:39;100237.19;;;3.52;100.00
18765;BME280;9511;54.242;12.448;2022-11-23T11:33:17;100239.19;;;3.57;100.00
18765;BME280;9511;54.242;12.448;2022-11-23T11:35:48;100241.13;;;3.61;100.00
18765;BME280;9511;54.242;12.448;2022-11-23T11:38:18;100240.41;;;3.65;100.00
18765;BME280;9511;54.242;12.448;2022-11-23T11:40:49;100230.31;;;3.73;100.00
18765;BME280;9511;54.242;12.448;2022-11-23T11:43:19;100227.13;;;3.80;100.00
18765;BME280;9511;54.242;12.448;2022-11-23T11:45:51;100237.59;;;3.80;100.00
18765;BME280;9511;54.242;12.448;2022-11-23T11:48:26;100230.56;;;3.79;100.00
18765;BME280;9511;54.242;12.448;2022-11-23T11:50:56;100228.91;;;3.81;100.00
18765;BME280;9511;54.242;12.448;2022-11-23T11:53:28;100232.19;;;3.77;100.00
18765;BME280;9511;54.242;12.448;2022-11-23T11:56:03;100229.94;;;3.85;100.00
18765;BME280;9511;54.242;12.448;2022-11-23T11:58:34;100235.34;;;3.89;100.00
18765;BME280;9511;54.242;12.448;2022-11-23T12:01:08;100235.75;;;3.98;100.00
18765;BME280;9511;54.242;12.448;2022-11-23T12:03:48;100242.19;;;4.07;100.00
18765;BME280;9511;54.242;12.448;2022-11-23T12:06:20;100241.66;;;4.14;100.00
18765;BME280;9511;54.242;12.448;2022-11-23T12:08:54;100242.19;;;4.07;100.00
18765;BME280;9511;54.242;12.448;2022-11-23T12:11:25;100245.06;;;4.13;100.00
18765;BME280;9511;54.242;12.448;2022-11-23T12:13:58;100243.69;;;4.21;100.00
18765;BME280;9511;54.242;12.448;2022-11-23T12:16:29;100243.09;;;4.28;100.00
18765;BME280;9511;54.242;12.448;2022-11-23T12:19:08;100238.84;;;4.30;100.00
18765;BME280;9511;54.242;12.448;2022-11-23T12:21:51;100224.59;;;4.44;100.00
18765;BME280;9511;54.242;12.448;2022-11-23T12:24:32;100228.88;;;4.42;100.00
18765;BME280;9511;54.242;12.448;2022-11-23T12:27:09;100233.03;;;4.37;100.00
18765;BME280;9511;54.242;12.448;2022-11-23T12:29:51;100227.28;;;4.25;100.00
18765;BME280;9511;54.242;12.448;2022-11-23T12:32:27;100219.22;;;4.41;100.00
18765;BME280;9511;54.242;12.448;2022-11-23T12:35:16;100217.81;;;4.49;100.00
18765;BME280;9511;54.242;12.448;2022-11-23T12:37:56;100216.16;;;4.74;100.00
18765;BME280;9511;54.242;12.448;2022-11-23T12:40:43;100208.94;;;5.13;100.00
18765;BME280;9511;54.242;12.448;2022-11-23T12:43:20;100214.25;;;4.92;100.00
18765;BME280;9511;54.242;12.448;2022-11-23T12:45:55;100217.53;;;5.09;100.00
18765;BME280;9511;54.242;12.448;2022-11-23T12:48:35;100218.78;;;5.19;99.83
18765;BME280;9511;54.242;12.448;2022-11-23T12:51:15;100216.88;;;5.15;98.84
18765;BME280;9511;54.242;12.448;2022-11-23T12:53:53;100211.75;;;5.18;99.16
18765;BME280;9511;54.242;12.448;2022-11-23T12:56:39;100224.50;;;5.09;98.12
18765;BME280;9511;54.242;12.448;2022-11-23T12:59:12;100225.28;;;4.84;97.69
18765;BME280;9511;54.242;12.448;2022-11-23T13:01:42;100232.25;;;4.61;98.10
18765;BME280;9511;54.242;12.448;2022-11-23T13:07:22;100233.38;;;4.46;99.19
18765;BME280;9511;54.242;12.448;2022-11-23T13:10:05;100233.03;;;4.37;99.15
18765;BME280;9511;54.242;12.448;2022-11-23T13:12:50;100236.34;;;4.33;99.67
18765;BME280;9511;54.242;12.448;2022-11-23T13:15:40;100225.88;;;4.33;100.00
18765;BME280;9511;54.242;12.448;2022-11-23T13:18:18;100231.66;;;4.68;100.00